Time;durP1;ratioP1;P1;durP2;ratioP2;P2;SDS_P1;SDS_P2;PMS_P1;PMS_P2;Temp;Humidity;BMP_temperature;BMP_pressure;BME280_temperature;BME280_humidity;BME280_pressure;Samples;Min_cycle;Max_cycle;Signal;HPM_P1;HPM_P2
2024/01/08 00:02:03;;;;;;;7.28;6.22;;;;;;;;;;5049214;28;20040;-50
2024/01/08 00:04:29;;;;;;;7.50;5.40;;;;;;;;;;5053467;28;20032;-50
2024/01/08 00:06:55;;;;;;;6.28;5.43;;;;;;;;;;5056177;28;20021;-53
2024/01/08 00:09:21;;;;;;;7.28;5.57;;;;;;;;;;5051492;28;20032;-50
2024/01/08 00:11:47;;;;;;;6.65;6.05;;;;;;;;;;5052605;28;20111;-50
2024/01/08 00:14:14;;;;;;;6.18;5.10;;;;;;;;;;5063317;28;20038;-50
2024/01/08 00:16:40;;;;;;;8.13;5.75;;;;;;;;;;5065965;28;20024;-50
2024/01/08 00:19:06;;;;;;;7.57;5.00;;;;;;;;;;5052911;28;20112;-50
2024/01/08 00:21:32;;;;;;;6.73;5.57;;;;;;;;;;5053385;28;20090;-55
2024/01/08 00:23:59;;;;;;;6.07;5.45;;;;;;;;;;5071088;28;20032;-52
2024/01/08 00:26:25;;;;;;;6.60;5.87;;;;;;;;;;5069532;28;20481;-51
2024/01/08 00:28:51;;;;;;;6.57;5.63;;;;;;;;;;5051761;28;20108;-50
2024/01/08 00:31:17;;;;;;;6.63;5.60;;;;;;;;;;5053620;28;20029;-51
2024/01/08 00:33:44;;;;;;;5.87;5.27;;;;;;;;;;5042968;28;20051;-50
2024/01/08 00:36:10;;;;;;;6.57;4.82;;;;;;;;;;5071250;28;20028;-50
2024/01/08 00:38:36;;;;;;;7.68;5.68;;;;;;;;;;5071118;28;20045;-52
2024/01/08 00:41:02;;;;;;;6.78;5.78;;;;;;;;;;5071001;28;20051;-50
2024/01/08 00:43:28;;;;;;;7.83;5.73;;;;;;;;;;5067743;28;20017;-51
2024/01/08 00:45:54;;;;;;;6.30;5.70;;;;;;;;;;5060345;28;20294;-50
2024/01/08 00:48:21;;;;;;;5.18;4.65;;;;;;;;;;5060788;28;20021;-54
2024/01/08 00:50:48;;;;;;;6.38;5.35;;;;;;;;;;5051247;28;20428;-54
2024/01/08 00:53:14;;;;;;;6.47;5.50;;;;;;;;;;5050930;28;20036;-50
2024/01/08 00:55:40;;;;;;;7.97;6.05;;;;;;;;;;5033327;28;20496;-51
2024/01/08 00:58:06;;;;;;;6.72;5.93;;;;;;;;;;5067290;28;20025;-50
2024/01/08 01:00:32;;;;;;;6.13;5.47;;;;;;;;;;5054609;28;20028;-50
2024/01/08 01:02:58;;;;;;;7.00;5.53;;;;;;;;;;5070607;28;20028;-51
2024/01/08 01:05:25;;;;;;;8.15;6.38;;;;;;;;;;5069047;28;20034;-52
2024/01/08 01:07:51;;;;;;;7.57;5.93;;;;;;;;;;5052746;28;20487;-50
2024/01/08 01:10:17;;;;;;;6.55;5.82;;;;;;;;;;5070440;28;20542;-50
2024/01/08 01:12:43;;;;;;;6.88;5.78;;;;;;;;;;5050256;28;20199;-51
2024/01/08 01:15:10;;;;;;;6.13;5.53;;;;;;;;;;5051077;28;20487;-50
2024/01/08 01:17:36;;;;;;;7.57;6.07;;;;;;;;;;5070249;28;20036;-50
2024/01/08 01:20:03;;;;;;;7.00;6.10;;;;;;;;;;5042551;28;20067;-52
2024/01/08 01:22:29;;;;;;;7.68;5.88;;;;;;;;;;5056562;28;20479;-50
2024/01/08 01:24:55;;;;;;;6.10;5.50;;;;;;;;;;5069958;28;20505;-53
2024/01/08 01:27:22;;;;;;;6.97;6.25;;;;;;;;;;5041745;28;20325;-51
2024/01/08 01:29:48;;;;;;;7.32;6.28;;;;;;;;;;5037342;28;20032;-53
2024/01/08 01:32:14;;;;;;;7.05;6.05;;;;;;;;;;5055877;28;20054;-52
2024/01/08 01:34:40;;;;;;;8.65;6.90;;;;;;;;;;5053803;28;20029;-50
2024/01/08 01:37:06;;;;;;;8.60;6.53;;;;;;;;;;5069075;28;20036;-54
2024/01/08 01:39:33;;;;;;;6.90;6.03;;;;;;;;;;5072379;28;20052;-51
2024/01/08 01:41:59;;;;;;;7.70;5.93;;;;;;;;;;5058651;28;20036;-53
2024/01/08 01:44:25;;;;;;;6.68;6.03;;;;;;;;;;5055122;28;20028;-51
2024/01/08 01:46:52;;;;;;;7.20;6.38;;;;;;;;;;5068400;28;20495;-52
2024/01/08 01:49:20;;;;;;;6.15;5.53;;;;;;;;;;5073620;28;20067;-55
2024/01/08 01:51:47;;;;;;;7.35;6.07;;;;;;;;;;5045917;28;20020;-54
2024/01/08 01:54:14;;;;;;;6.95;6.25;;;;;;;;;;5053670;28;20017;-50
2024/01/08 01:56:40;;;;;;;;;;;;;;;;;;5069649;28;20097;-54
2024/01/08 01:59:07;;;;;;;8.70;5.82;;;;;;;;;;5060176;28;20057;-55
2024/01/08 02:01:35;;;;;;;7.00;6.07;;;;;;;;;;5064598;28;20394;-53
2024/01/08 02:04:02;;;;;;;6.05;5.45;;;;;;;;;;5053772;28;20039;-50
2024/01/08 02:06:29;;;;;;;9.40;6.72;;;;;;;;;;5043146;28;20024;-50
2024/01/08 02:08:55;;;;;;;7.88;6.30;;;;;;;;;;5062330;28;20021;-51
2024/01/08 02:11:22;;;;;;;8.77;6.55;;;;;;;;;;5054645;28;20112;-50
2024/01/08 02:13:48;;;;;;;8.52;6.80;;;;;;;;;;5065492;28;20376;-56
2024/01/08 02:16:17;;;;;;;7.32;6.57;;;;;;;;;;5053435;28;20037;-56
2024/01/08 02:18:43;;;;;;;7.43;6.72;;;;;;;;;;5061930;28;20478;-55
2024/01/08 02:21:09;;;;;;;6.63;5.97;;;;;;;;;;5055481;28;20029;-54
2024/01/08 02:23:36;;;;;;;8.95;5.85;;;;;;;;;;5073044;28;20031;-53
2024/01/08 02:26:02;;;;;;;10.27;6.13;;;;;;;;;;5055294;28;20500;-52
2024/01/08 02:28:28;;;;;;;8.45;6.25;;;;;;;;;;5073259;28;20024;-52
2024/01/08 02:30:56;;;;;;;8.18;6.47;;;;;;;;;;5046562;28;20033;-51
2024/01/08 02:33:22;;;;;;;7.15;6.10;;;;;;;;;;5052981;28;20372;-53
2024/01/08 02:35:48;;;;;;;7.40;5.30;;;;;;;;;;5053039;28;20445;-53
2024/01/08 02:38:14;;;;;;;8.20;6.30;;;;;;;;;;5053000;28;20021;-52
2024/01/08 02:40:43;;;;;;;7.90;6.53;;;;;;;;;;5052999;28;20037;-54
2024/01/08 02:43:10;;;;;;;8.43;5.70;;;;;;;;;;5035091;28;20029;-53
2024/01/08 02:45:36;;;;;;;8.00;6.43;;;;;;;;;;5041713;28;20028;-52
2024/01/08 02:48:02;;;;;;;7.50;6.55;;;;;;;;;;5072597;28;20043;-52
2024/01/08 02:50:28;;;;;;;7.87;6.80;;;;;;;;;;5072799;28;20039;-53
2024/01/08 02:52:54;;;;;;;9.57;6.80;;;;;;;;;;5071743;28;20103;-51
2024/01/08 02:55:21;;;;;;;7.63;6.80;;;;;;;;;;5071795;28;20079;-52
2024/01/08 02:57:47;;;;;;;9.75;7.45;;;;;;;;;;5046531;28;20032;-50
2024/01/08 03:00:13;;;;;;;8.90;6.90;;;;;;;;;;5037233;28;20041;-50
2024/01/08 03:02:40;;;;;;;8.52;7.55;;;;;;;;;;5072634;28;20044;-51
2024/01/08 03:05:06;;;;;;;8.85;7.80;;;;;;;;;;5037245;28;20025;-51
2024/01/08 03:07:32;;;;;;;8.43;7.43;;;;;;;;;;5054298;28;20038;-51
2024/01/08 03:09:59;;;;;;;8.90;7.18;;;;;;;;;;5071030;28;20020;-50
2024/01/08 03:12:26;;;;;;;9.35;7.70;;;;;;;;;;5051456;28;20082;-54
2024/01/08 03:14:53;;;;;;;7.55;6.80;;;;;;;;;;5036987;28;20502;-51
2024/01/08 03:17:19;;;;;;;9.50;7.13;;;;;;;;;;5053463;28;20036;-50
2024/01/08 03:19:45;;;;;;;8.60;7.40;;;;;;;;;;5034541;28;20032;-50
2024/01/08 03:22:11;;;;;;;8.45;7.55;;;;;;;;;;5052107;28;20036;-50
2024/01/08 03:24:37;;;;;;;9.43;7.73;;;;;;;;;;5035165;28;20098;-51
2024/01/08 03:27:04;;;;;;;9.48;8.00;;;;;;;;;;5056481;28;20040;-54
2024/01/08 03:29:30;;;;;;;9.40;8.00;;;;;;;;;;5047843;28;20025;-53
2024/01/08 03:31:56;;;;;;;9.10;7.78;;;;;;;;;;5065341;28;20073;-52
2024/01/08 03:34:23;;;;;;;9.53;7.83;;;;;;;;;;5068615;28;20036;-52
2024/01/08 03:36:50;;;;;;;10.95;8.73;;;;;;;;;;5059443;28;20025;-50
2024/01/08 03:39:17;;;;;;;10.07;7.90;;;;;;;;;;5051874;28;20032;-53
2024/01/08 03:41:43;;;;;;;8.98;8.07;;;;;;;;;;5023719;28;20281;-50
2024/01/08 03:44:10;;;;;;;9.48;8.32;;;;;;;;;;5071403;28;20025;-51
2024/01/08 03:46:39;;;;;;;10.32;8.68;;;;;;;;;;5060015;28;20056;-54
2024/01/08 03:49:06;;;;;;;12.77;9.77;;;;;;;;;;5051717;28;20025;-52
2024/01/08 03:51:34;;;;;;;10.05;9.00;;;;;;;;;;5060750;28;20035;-50
2024/01/08 03:54:00;;;;;;;9.70;8.13;;;;;;;;;;5058578;28;20052;-55
2024/01/08 03:56:26;;;;;;;9.85;8.82;;;;;;;;;;5057472;28;20108;-55
2024/01/08 03:58:53;;;;;;;9.40;8.20;;;;;;;;;;5051679;28;20494;-50
2024/01/08 04:01:19;;;;;;;10.57;9.48;;;;;;;;;;5059270;28;20031;-50
2024/01/08 04:03:45;;;;;;;12.27;9.02;;;;;;;;;;5051273;28;20487;-50
2024/01/08 04:06:11;;;;;;;15.43;10.00;;;;;;;;;;5071546;28;20031;-50
2024/01/08 04:08:37;;;;;;;14.32;10.63;;;;;;;;;;5047570;28;20510;-51
2024/01/08 04:11:04;;;;;;;10.60;9.50;;;;;;;;;;5038698;28;20028;-50
2024/01/08 04:13:31;;;;;;;14.67;10.87;;;;;;;;;;5049749;28;20029;-50
2024/01/08 04:15:57;;;;;;;13.70;10.27;;;;;;;;;;5062071;28;20031;-51
2024/01/08 04:18:23;;;;;;;12.45;9.98;;;;;;;;;;5052914;28;20033;-52
2024/01/08 04:20:49;;;;;;;11.60;9.65;;;;;;;;;;5056378;28;20095;-50
2024/01/08 04:23:16;;;;;;;13.43;10.50;;;;;;;;;;5053203;28;20115;-50
2024/01/08 04:25:42;;;;;;;13.30;10.77;;;;;;;;;;5069587;28;20029;-50
2024/01/08 04:28:08;;;;;;;13.70;10.80;;;;;;;;;;5071009;28;20548;-57
2024/01/08 04:30:35;;;;;;;15.00;11.30;;;;;;;;;;5065781;28;20027;-51
2024/01/08 04:33:01;;;;;;;14.88;10.32;;;;;;;;;;5033255;28;20028;-51
2024/01/08 04:35:27;;;;;;;15.02;10.45;;;;;;;;;;5092810;22;20063;-62
2024/01/08 04:37:53;;;;;;;13.80;11.27;;;;;;;;;;5070806;28;20103;-63
2024/01/08 04:40:20;;;;;;;14.95;11.68;;;;;;;;;;5071189;28;20051;-63
2024/01/08 04:42:46;;;;;;;14.13;11.23;;;;;;;;;;5071243;28;20037;-60
2024/01/08 04:45:12;;;;;;;15.30;11.32;;;;;;;;;;5070397;28;20426;-60
2024/01/08 04:47:39;;;;;;;14.10;11.18;;;;;;;;;;5070955;28;20394;-62
2024/01/08 04:50:05;;;;;;;13.65;10.75;;;;;;;;;;5070805;28;20115;-55
2024/01/08 04:52:31;;;;;;;16.85;12.35;;;;;;;;;;5070706;28;20027;-59
2024/01/08 04:54:58;;;;;;;17.48;12.13;;;;;;;;;;5070600;28;20056;-62
2024/01/08 04:57:24;;;;;;;14.80;11.80;;;;;;;;;;5071236;28;20060;-59
2024/01/08 04:59:50;;;;;;;13.80;10.85;;;;;;;;;;5036718;28;20032;-60
2024/01/08 05:02:16;;;;;;;13.20;10.77;;;;;;;;;;5036605;28;20037;-61
2024/01/08 05:04:43;;;;;;;15.13;11.80;;;;;;;;;;5074310;28;20098;-57
2024/01/08 05:07:12;;;;;;;15.82;12.70;;;;;;;;;;5074889;28;20546;-60
2024/01/08 05:09:38;;;;;;;15.18;11.48;;;;;;;;;;5074810;28;20063;-62
2024/01/08 05:12:04;;;;;;;16.92;11.23;;;;;;;;;;5056731;28;20029;-61
2024/01/08 05:14:30;;;;;;;16.33;11.80;;;;;;;;;;5074426;28;20059;-62
2024/01/08 05:16:56;;;;;;;13.05;10.90;;;;;;;;;;5074562;28;20178;-61
2024/01/08 05:19:22;;;;;;;13.02;11.00;;;;;;;;;;5056846;28;20457;-59
2024/01/08 05:21:49;;;;;;;13.05;10.68;;;;;;;;;;5074540;28;20039;-61
2024/01/08 05:24:15;;;;;;;14.73;11.40;;;;;;;;;;5074245;28;20035;-59
2024/01/08 05:26:42;;;;;;;12.90;10.45;;;;;;;;;;5074552;28;20521;-62
2024/01/08 05:29:08;;;;;;;14.65;11.20;;;;;;;;;;5056584;28;20024;-63
2024/01/08 05:31:34;;;;;;;12.83;11.20;;;;;;;;;;5074347;28;20029;-61
2024/01/08 05:34:00;;;;;;;13.38;11.02;;;;;;;;;;5055977;28;20043;-61
2024/01/08 05:36:29;;;;;;;15.77;11.75;;;;;;;;;;5074294;28;20036;-61
2024/01/08 05:38:59;;;;;;;17.27;12.07;;;;;;;;;;5074214;28;20103;-62
2024/01/08 05:41:25;;;;;;;16.65;12.63;;;;;;;;;;5074302;28;20090;-60
2024/01/08 05:43:51;;;;;;;16.43;11.43;;;;;;;;;;5074177;28;20033;-60
2024/01/08 05:46:18;;;;;;;13.83;10.47;;;;;;;;;;5056216;28;20039;-55
2024/01/08 05:48:44;;;;;;;12.85;11.10;;;;;;;;;;5056505;28;20413;-60
2024/01/08 05:51:10;;;;;;;14.45;11.75;;;;;;;;;;5056332;28;20021;-59
2024/01/08 05:53:37;;;;;;;13.65;10.43;;;;;;;;;;5073889;28;20029;-61
2024/01/08 05:56:03;;;;;;;13.93;10.63;;;;;;;;;;5074108;28;20050;-59
2024/01/08 05:58:32;;;;;;;12.30;10.50;;;;;;;;;;5056068;28;20132;-62
2024/01/08 06:00:59;;;;;;;13.10;10.27;;;;;;;;;;5073937;28;20107;-60
2024/01/08 06:03:25;;;;;;;12.43;10.38;;;;;;;;;;5055726;28;20554;-62
2024/01/08 06:05:51;;;;;;;13.80;10.18;;;;;;;;;;5055728;28;20047;-62
2024/01/08 06:08:17;;;;;;;13.98;11.23;;;;;;;;;;5055973;28;20047;-62
2024/01/08 06:10:44;;;;;;;10.90;9.57;;;;;;;;;;5073646;28;20020;-61
2024/01/08 06:13:11;;;;;;;11.98;10.57;;;;;;;;;;5073983;28;20589;-61
2024/01/08 06:15:37;;;;;;;12.27;10.07;;;;;;;;;;5072808;28;20032;-63
2024/01/08 06:18:04;;;;;;;12.75;10.65;;;;;;;;;;5055213;28;20089;-62
2024/01/08 06:20:30;;;;;;;;;;;;;;;;;;5073975;28;20490;-62
2024/01/08 06:22:57;;;;;;;13.02;10.57;;;;;;;;;;5055444;28;19912;-60
2024/01/08 06:25:23;;;;;;;13.47;10.17;;;;;;;;;;5073002;28;20033;-62
2024/01/08 06:27:49;;;;;;;16.20;10.35;;;;;;;;;;5073475;28;20031;-62
2024/01/08 06:30:17;;;;;;;11.88;10.10;;;;;;;;;;5055403;28;20025;-62
2024/01/08 06:32:44;;;;;;;13.07;10.25;;;;;;;;;;5073302;28;20020;-60
2024/01/08 06:35:10;;;;;;;16.38;11.68;;;;;;;;;;5072862;28;20036;-62
2024/01/08 06:37:36;;;;;;;11.20;9.98;;;;;;;;;;5055583;28;20441;-62
2024/01/08 06:40:03;;;;;;;12.07;9.77;;;;;;;;;;5073156;28;20505;-62
2024/01/08 06:42:29;;;;;;;13.30;10.60;;;;;;;;;;5055178;28;20085;-62
2024/01/08 06:44:55;;;;;;;12.75;11.10;;;;;;;;;;5038299;28;20157;-62
2024/01/08 06:47:21;;;;;;;13.82;10.35;;;;;;;;;;5072942;28;20021;-61
2024/01/08 06:49:48;;;;;;;12.55;10.15;;;;;;;;;;5055006;28;20035;-62
2024/01/08 06:52:14;;;;;;;13.20;10.27;;;;;;;;;;5072973;28;20402;-63
2024/01/08 06:54:40;;;;;;;13.68;10.48;;;;;;;;;;5072540;28;20039;-59
2024/01/08 06:57:06;;;;;;;14.20;11.10;;;;;;;;;;5055102;28;20432;-62
2024/01/08 06:59:32;;;;;;;15.13;11.43;;;;;;;;;;5072664;28;20040;-60
2024/01/08 07:01:58;;;;;;;13.05;10.75;;;;;;;;;;5072785;28;20025;-62
2024/01/08 07:04:25;;;;;;;14.10;11.27;;;;;;;;;;5072268;28;20029;-61
2024/01/08 07:06:51;;;;;;;13.70;10.38;;;;;;;;;;5072564;28;20073;-62
2024/01/08 07:09:17;;;;;;;17.73;12.10;;;;;;;;;;5072479;28;20028;-62
2024/01/08 07:11:43;;;;;;;12.95;11.43;;;;;;;;;;5072476;28;20390;-61
2024/01/08 07:14:09;;;;;;;15.30;11.43;;;;;;;;;;5072222;28;20036;-62
2024/01/08 07:16:36;;;;;;;13.43;11.03;;;;;;;;;;5072430;28;20398;-61
2024/01/08 07:19:03;;;;;;;13.38;11.63;;;;;;;;;;5072308;28;20089;-61
2024/01/08 07:21:29;;;;;;;13.43;11.35;;;;;;;;;;5072309;28;20471;-62
2024/01/08 07:23:55;;;;;;;13.27;10.17;;;;;;;;;;5072054;28;20033;-61
2024/01/08 07:26:21;;;;;;;13.25;11.40;;;;;;;;;;5071327;28;20039;-62
2024/01/08 07:28:48;;;;;;;13.45;10.82;;;;;;;;;;5072179;28;20111;-60
2024/01/08 07:31:17;;;;;;;11.88;10.13;;;;;;;;;;5072181;28;20100;-62
2024/01/08 07:33:44;;;;;;;14.93;11.55;;;;;;;;;;5053798;28;20051;-62
2024/01/08 07:36:10;;;;;;;16.33;12.05;;;;;;;;;;5072024;28;20402;-62
2024/01/08 07:38:36;;;;;;;14.63;12.02;;;;;;;;;;5071977;28;20024;-60
2024/01/08 07:41:02;;;;;;;18.10;13.40;;;;;;;;;;5071898;28;20540;-62
2024/01/08 07:43:29;;;;;;;18.37;12.63;;;;;;;;;;5053667;28;20082;-65
2024/01/08 07:45:55;;;;;;;14.98;12.80;;;;;;;;;;5053910;28;20517;-61
2024/01/08 07:48:21;;;;;;;14.50;12.13;;;;;;;;;;5053771;28;20047;-62
2024/01/08 07:50:47;;;;;;;15.95;12.20;;;;;;;;;;5070520;28;20100;-62
2024/01/08 07:53:14;;;;;;;13.45;11.43;;;;;;;;;;5071613;28;20028;-59
2024/01/08 07:55:40;;;;;;;15.85;13.30;;;;;;;;;;5071526;28;20111;-60
2024/01/08 07:58:07;;;;;;;15.95;12.43;;;;;;;;;;5071850;28;20024;-59
2024/01/08 08:00:33;;;;;;;16.80;12.65;;;;;;;;;;5054085;28;20040;-63
2024/01/08 08:02:59;;;;;;;16.15;13.75;;;;;;;;;;5071704;28;20025;-61
2024/01/08 08:05:25;;;;;;;18.58;13.68;;;;;;;;;;5053185;28;20062;-62
2024/01/08 08:07:52;;;;;;;18.58;13.80;;;;;;;;;;5071651;28;20127;-62
2024/01/08 08:10:18;;;;;;;20.52;13.30;;;;;;;;;;5053831;28;20502;-62
2024/01/08 08:12:44;;;;;;;18.08;14.90;;;;;;;;;;5071612;28;20094;-59
2024/01/08 08:15:10;;;;;;;16.20;12.80;;;;;;;;;;5053472;28;20028;-60
2024/01/08 08:17:42;;;;;;;19.00;14.13;;;;;;;;;;5071587;28;20035;-60
2024/01/08 08:20:10;;;;;;;22.77;14.90;;;;;;;;;;5071356;28;20032;-62
2024/01/08 08:22:37;;;;;;;19.23;14.15;;;;;;;;;;5071334;28;20493;-61
2024/01/08 08:25:03;;;;;;;17.02;14.05;;;;;;;;;;5071160;28;20041;-62
2024/01/08 08:27:29;;;;;;;18.87;13.53;;;;;;;;;;5071558;28;20024;-63
2024/01/08 08:29:56;;;;;;;18.53;13.20;;;;;;;;;;5053583;28;20029;-61
2024/01/08 08:32:22;;;;;;;16.48;13.52;;;;;;;;;;5036864;28;20074;-61
2024/01/08 08:34:49;;;;;;;17.20;14.50;;;;;;;;;;5070918;28;20037;-59
2024/01/08 08:37:15;;;;;;;16.90;13.52;;;;;;;;;;5072670;28;20751;-59
2024/01/08 08:39:41;;;;;;;16.10;13.52;;;;;;;;;;5075517;28;20036;-59
2024/01/08 08:42:08;;;;;;;14.37;11.70;;;;;;;;;;5075399;28;20077;-61
2024/01/08 08:44:35;;;;;;;18.08;13.60;;;;;;;;;;5074973;28;20076;-60
2024/01/08 08:47:04;;;;;;;17.52;13.13;;;;;;;;;;5075266;28;20100;-62
2024/01/08 08:49:30;;;;;;;19.13;13.43;;;;;;;;;;5057300;28;20036;-59
2024/01/08 08:51:57;;;;;;;15.88;13.35;;;;;;;;;;5075096;28;20024;-60
2024/01/08 08:54:23;;;;;;;20.73;13.27;;;;;;;;;;5074943;28;20587;-60
2024/01/08 08:56:49;;;;;;;19.50;13.55;;;;;;;;;;5075245;28;20410;-62
2024/01/08 08:59:15;;;;;;;16.02;14.32;;;;;;;;;;5075117;28;20398;-61
2024/01/08 09:01:41;;;;;;;16.33;13.98;;;;;;;;;;5075016;28;20399;-62
2024/01/08 09:04:08;;;;;;;15.68;13.55;;;;;;;;;;5056861;28;20033;-60
2024/01/08 09:06:34;;;;;;;21.75;14.80;;;;;;;;;;5074692;28;20044;-60
2024/01/08 09:09:02;;;;;;;18.15;14.77;;;;;;;;;;5075062;28;20068;-61
2024/01/08 09:11:28;;;;;;;20.92;14.57;;;;;;;;;;5057049;28;20090;-56
2024/01/08 09:13:54;;;;;;;19.70;15.67;;;;;;;;;;5074535;28;20025;-63
2024/01/08 09:16:22;;;;;;;19.43;13.93;;;;;;;;;;5074756;28;20052;-63
2024/01/08 09:18:49;;;;;;;22.98;14.48;;;;;;;;;;5074723;28;20029;-60
2024/01/08 09:21:15;;;;;;;16.52;13.07;;;;;;;;;;5074628;28;20059;-58
2024/01/08 09:23:42;;;;;;;20.48;15.38;;;;;;;;;;5074408;28;20056;-62
2024/01/08 09:26:08;;;;;;;97.82;69.70;;;;;;;;;;5056562;28;20025;-60
2024/01/08 09:28:35;;;;;;;23.25;16.77;;;;;;;;;;5074553;28;20103;-63
2024/01/08 09:31:02;;;;;;;18.40;14.43;;;;;;;;;;5074500;28;20025;-63
2024/01/08 09:33:28;;;;;;;20.40;15.45;;;;;;;;;;5074078;28;20250;-58
2024/01/08 09:35:55;;;;;;;20.05;14.32;;;;;;;;;;5056411;28;20032;-62
2024/01/08 09:38:21;;;;;;;22.70;15.55;;;;;;;;;;5074394;28;20056;-61
2024/01/08 09:40:47;;;;;;;19.60;14.60;;;;;;;;;;5073131;28;20099;-60
2024/01/08 09:43:19;;;;;;;21.80;15.88;;;;;;;;;;5074294;28;20028;-60
2024/01/08 09:46:01;;;;;;;22.88;15.35;;;;;;;;;;5074222;28;20035;-63
2024/01/08 09:48:28;;;;;;;18.67;14.88;;;;;;;;;;5055547;28;20025;-60
2024/01/08 09:50:55;;;;;;;19.38;15.55;;;;;;;;;;5056104;28;20101;-60
2024/01/08 09:53:21;;;;;;;22.88;15.38;;;;;;;;;;5074064;28;20025;-63
2024/01/08 09:55:47;;;;;;;17.52;14.15;;;;;;;;;;5056028;28;20028;-60
2024/01/08 09:58:14;;;;;;;17.67;14.17;;;;;;;;;;5074023;28;20039;-61
2024/01/08 10:00:43;;;;;;;20.97;14.03;;;;;;;;;;5056091;28;20267;-62
2024/01/08 10:03:09;;;;;;;17.40;13.20;;;;;;;;;;5073945;28;20119;-62
2024/01/08 10:05:36;;;;;;;17.48;13.65;;;;;;;;;;5073578;28;20020;-62
2024/01/08 10:08:03;;;;;;;18.65;13.90;;;;;;;;;;5073555;28;20020;-60
2024/01/08 10:10:29;;;;;;;18.33;15.32;;;;;;;;;;5055873;28;20029;-60
2024/01/08 10:12:56;;;;;;;16.70;13.57;;;;;;;;;;5073678;28;20021;-63
2024/01/08 10:15:25;;;;;;;18.33;13.52;;;;;;;;;;5073095;28;20383;-60
2024/01/08 10:17:51;;;;;;;20.85;13.05;;;;;;;;;;5055798;28;20387;-61
2024/01/08 10:20:17;;;;;;;15.60;12.43;;;;;;;;;;5071891;28;20028;-63
2024/01/08 10:22:45;;;;;;;15.05;13.05;;;;;;;;;;5072611;28;20258;-62
2024/01/08 10:25:11;;;;;;;;;;;;;;;;;;5055249;28;20490;-61
2024/01/08 10:27:37;;;;;;;17.40;13.20;;;;;;;;;;5055035;28;20011;-61
2024/01/08 10:30:04;;;;;;;14.25;11.95;;;;;;;;;;5072859;28;20027;-62
2024/01/08 10:32:30;;;;;;;16.58;12.32;;;;;;;;;;5072873;28;20150;-61
2024/01/08 10:34:56;;;;;;;18.10;12.32;;;;;;;;;;5073331;28;20033;-62
2024/01/08 10:37:22;;;;;;;21.88;12.80;;;;;;;;;;5073193;28;20032;-62
2024/01/08 10:39:49;;;;;;;19.50;15.23;;;;;;;;;;5073122;28;20021;-62
2024/01/08 10:42:15;;;;;;;19.08;14.80;;;;;;;;;;5073150;28;20028;-59
2024/01/08 10:44:41;;;;;;;17.25;13.95;;;;;;;;;;5072782;28;20451;-62
2024/01/08 10:47:10;;;;;;;29.90;14.57;;;;;;;;;;5055161;28;20062;-61
2024/01/08 10:49:37;;;;;;;17.85;13.48;;;;;;;;;;5054946;28;20029;-62
2024/01/08 10:52:14;;;;;;;21.15;15.93;;;;;;;;;;5072887;28;20059;-60
2024/01/08 10:54:44;;;;;;;18.77;16.30;;;;;;;;;;5072573;28;20083;-62
2024/01/08 10:57:13;;;;;;;15.70;13.13;;;;;;;;;;5072660;28;20406;-63
2024/01/08 10:59:39;;;;;;;20.70;13.77;;;;;;;;;;5072665;28;20024;-61
2024/01/08 11:02:06;;;;;;;17.85;13.27;;;;;;;;;;5072720;28;20024;-61
2024/01/08 11:04:32;;;;;;;19.70;14.20;;;;;;;;;;5072249;28;20487;-59
2024/01/08 11:07:01;;;;;;;20.52;14.38;;;;;;;;;;5072678;28;20047;-62
2024/01/08 11:09:31;;;;;;;18.50;12.98;;;;;;;;;;5072531;28;20082;-60
2024/01/08 11:11:57;;;;;;;17.15;12.10;;;;;;;;;;5072506;28;20077;-59
2024/01/08 11:14:27;;;;;;;13.50;10.90;;;;;;;;;;5071596;28;20506;-62
2024/01/08 11:16:53;;;;;;;18.02;10.50;;;;;;;;;;5053657;28;20036;-60
2024/01/08 11:19:20;;;;;;;14.97;10.30;;;;;;;;;;5072127;28;20112;-61
2024/01/08 11:21:48;;;;;;;14.10;10.97;;;;;;;;;;5054135;28;20035;-61
2024/01/08 11:24:15;;;;;;;16.50;11.10;;;;;;;;;;5071189;28;20032;-66
2024/01/08 11:26:43;;;;;;;12.60;9.75;;;;;;;;;;5059699;28;20044;-63
2024/01/08 11:29:10;;;;;;;15.55;10.70;;;;;;;;;;5053006;28;20035;-61
2024/01/08 11:31:48;;;;;;;15.65;10.93;;;;;;;;;;5053817;28;20028;-62
2024/01/08 11:34:33;;;;;;;15.98;11.57;;;;;;;;;;5036889;28;20036;-62
2024/01/08 11:37:20;;;;;;;12.52;9.00;;;;;;;;;;5071569;28;20063;-63
2024/01/08 11:39:46;;;;;;;15.07;8.98;;;;;;;;;;5052369;28;20371;-63
2024/01/08 11:42:12;;;;;;;14.30;12.80;;;;;;;;;;5052270;28;20372;-63
2024/01/08 11:44:39;;;;;;;12.77;10.85;;;;;;;;;;5045488;28;20033;-54
2024/01/08 11:47:06;;;;;;;15.32;8.63;;;;;;;;;;5066239;28;20033;-54
2024/01/08 11:49:33;;;;;;;10.90;7.68;;;;;;;;;;5069654;28;20186;-60
2024/01/08 11:52:02;;;;;;;10.90;9.30;;;;;;;;;;5052282;28;20028;-62
2024/01/08 11:54:28;;;;;;;12.75;8.07;;;;;;;;;;5069317;28;20029;-62
2024/01/08 11:56:55;;;;;;;12.48;9.98;;;;;;;;;;5069779;28;20020;-58
2024/01/08 11:59:34;;;;;;;13.63;8.40;;;;;;;;;;5069906;28;20035;-57
2024/01/08 12:02:19;;;;;;;11.88;7.95;;;;;;;;;;5039781;28;20029;-59
2024/01/08 12:05:11;;;;;;;16.95;10.02;;;;;;;;;;5069313;28;21096;-60
2024/01/08 12:07:39;;;;;;;10.18;8.05;;;;;;;;;;5066336;28;20417;-59
2024/01/08 12:10:08;;;;;;;11.45;7.95;;;;;;;;;;5035054;28;20024;-57
2024/01/08 12:12:35;;;;;;;11.02;8.85;;;;;;;;;;5069343;28;20529;-58
2024/01/08 12:15:02;;;;;;;16.55;9.32;;;;;;;;;;5069240;28;20495;-61
2024/01/08 12:17:28;;;;;;;13.10;10.03;;;;;;;;;;5068985;28;20095;-54
2024/01/08 12:19:55;;;;;;;12.70;10.60;;;;;;;;;;5050236;28;20328;-55
2024/01/08 12:22:22;;;;;;;10.23;9.00;;;;;;;;;;5069774;28;20032;-56
2024/01/08 12:24:58;;;;;;;11.68;6.72;;;;;;;;;;5051779;28;20040;-58
2024/01/08 12:27:31;;;;;;;11.68;7.53;;;;;;;;;;5069984;28;20524;-55
2024/01/08 12:29:58;;;;;;;13.23;8.90;;;;;;;;;;5069533;28;20032;-58
2024/01/08 12:32:24;;;;;;;12.30;7.28;;;;;;;;;;5051480;28;20027;-58
2024/01/08 12:34:51;;;;;;;12.95;7.20;;;;;;;;;;5051249;28;20510;-53
2024/01/08 12:37:18;;;;;;;8.88;5.10;;;;;;;;;;5070045;28;20048;-54
2024/01/08 12:39:44;;;;;;;7.50;6.00;;;;;;;;;;5069682;28;20036;-57
2024/01/08 12:42:14;;;;;;;11.55;6.55;;;;;;;;;;5069930;28;20398;-50
2024/01/08 12:44:41;;;;;;;6.97;5.25;;;;;;;;;;5067464;28;20101;-53
2024/01/08 12:47:07;;;;;;;11.05;6.55;;;;;;;;;;5069593;28;20028;-58
2024/01/08 12:49:34;;;;;;;8.48;6.28;;;;;;;;;;5069506;28;20055;-53
2024/01/08 12:52:01;;;;;;;8.50;6.43;;;;;;;;;;5052145;28;20024;-60
2024/01/08 12:54:28;;;;;;;12.27;6.70;;;;;;;;;;5069646;28;20039;-52
2024/01/08 12:56:54;;;;;;;9.27;6.22;;;;;;;;;;5051896;28;20028;-54
2024/01/08 12:59:22;;;;;;;8.23;5.85;;;;;;;;;;5051727;28;20039;-57
2024/01/08 13:01:48;;;;;;;8.20;6.43;;;;;;;;;;5069325;28;20526;-59
2024/01/08 13:04:15;;;;;;;12.15;5.65;;;;;;;;;;5062533;28;20350;-61
2024/01/08 13:06:43;;;;;;;11.80;5.80;;;;;;;;;;5051437;28;20035;-57
2024/01/08 13:09:11;;;;;;;7.97;5.03;;;;;;;;;;5069384;28;20357;-51
2024/01/08 13:11:38;;;;;;;11.68;5.40;;;;;;;;;;5051561;28;20035;-54
2024/01/08 13:14:04;;;;;;;14.07;5.30;;;;;;;;;;5051069;28;20414;-54
2024/01/08 13:16:31;;;;;;;8.00;4.55;;;;;;;;;;5068919;28;20016;-53
2024/01/08 13:18:57;;;;;;;8.65;6.03;;;;;;;;;;5069448;28;20082;-52
2024/01/08 13:21:24;;;;;;;19.55;6.30;;;;;;;;;;5051504;28;20037;-58
2024/01/08 13:23:51;;;;;;;8.20;4.60;;;;;;;;;;5069672;28;20041;-52
2024/01/08 13:26:17;;;;;;;9.25;5.18;;;;;;;;;;5072662;28;20028;-55
2024/01/08 13:28:45;;;;;;;11.23;4.32;;;;;;;;;;5072648;28;20020;-52
2024/01/08 13:31:11;;;;;;;10.98;4.65;;;;;;;;;;5054513;28;20044;-53
2024/01/08 13:33:38;;;;;;;10.05;4.80;;;;;;;;;;5072203;28;20097;-55
2024/01/08 13:36:04;;;;;;;11.35;5.10;;;;;;;;;;5072731;28;20040;-53
2024/01/08 13:38:31;;;;;;;21.33;5.72;;;;;;;;;;5072644;28;20032;-52
2024/01/08 13:41:00;;;;;;;7.95;4.65;;;;;;;;;;5054587;28;20028;-55
2024/01/08 13:43:27;;;;;;;13.35;5.20;;;;;;;;;;5054066;28;20059;-63
2024/01/08 13:45:54;;;;;;;7.97;5.47;;;;;;;;;;5071677;28;20032;-57
2024/01/08 13:48:20;;;;;;;8.77;4.82;;;;;;;;;;5072164;28;20100;-57
2024/01/08 13:50:46;;;;;;;12.57;5.35;;;;;;;;;;5072887;28;20021;-57
2024/01/08 13:53:13;;;;;;;7.87;5.23;;;;;;;;;;5055045;28;20031;-57
2024/01/08 13:55:39;;;;;;;11.47;5.73;;;;;;;;;;5054820;28;20020;-54
2024/01/08 13:58:07;;;;;;;6.95;4.68;;;;;;;;;;5072651;28;20032;-60
2024/01/08 14:00:33;;;;;;;9.43;6.18;;;;;;;;;;5072431;28;20013;-57
2024/01/08 14:02:59;;;;;;;11.27;5.95;;;;;;;;;;5072385;28;20029;-61
2024/01/08 14:05:25;;;;;;;9.80;4.90;;;;;;;;;;5071747;28;20033;-60
2024/01/08 14:07:52;;;;;;;8.70;5.77;;;;;;;;;;5072256;28;20025;-61
2024/01/08 14:10:18;;;;;;;13.32;6.78;;;;;;;;;;5065170;28;20020;-60
2024/01/08 14:12:44;;;;;;;18.53;8.20;;;;;;;;;;5070990;28;20016;-58
2024/01/08 14:15:11;;;;;;;12.35;6.72;;;;;;;;;;5072417;28;20027;-58
2024/01/08 14:17:41;;;;;;;10.20;6.18;;;;;;;;;;5069768;28;20033;-58
2024/01/08 14:20:11;;;;;;;12.13;6.38;;;;;;;;;;5072644;28;20037;-53
2024/01/08 14:22:41;;;;;;;11.45;6.30;;;;;;;;;;5072109;28;20483;-60
2024/01/08 14:25:07;;;;;;;14.85;10.27;;;;;;;;;;5072894;28;20032;-56
2024/01/08 14:27:35;;;;;;;15.93;7.47;;;;;;;;;;5073214;28;20036;-58